sensor_id;sensor_type;location;lat;lon;timestamp;temperature;humidity
25170;DHT22;13129;48.012;10.352;2022-10-26T03:31:04;10.10;99.90
25170;DHT22;13129;48.012;10.352;2022-10-26T03:33:30;10.20;99.90
25170;DHT22;13129;48.012;10.352;2022-10-26T03:35:56;10.20;99.90
25170;DHT22;13129;48.012;10.352;2022-10-26T03:38:22;10.30;99.90
25170;DHT22;13129;48.012;10.352;2022-10-26T03:40:47;10.30;99.90
25170;DHT22;13129;48.012;10.352;2022-10-26T03:43:13;10.30;99.90
25170;DHT22;13129;48.012;10.352;2022-10-26T03:45:39;10.30;99.90
25170;DHT22;13129;48.012;10.352;2022-10-26T03:48:04;10.30;99.90
25170;DHT22;13129;48.012;10.352;2022-10-26T03:50:30;10.40;99.90
25170;DHT22;13129;48.012;10.352;2022-10-26T03:52:56;10.40;99.90
25170;DHT22;13129;48.012;10.352;2022-10-26T03:55:22;10.40;99.90
25170;DHT22;13129;48.012;10.352;2022-10-26T03:57:47;10.40;99.90
25170;DHT22;13129;48.012;10.352;2022-10-26T04:00:15;10.40;99.90
25170;DHT22;13129;48.012;10.352;2022-10-26T04:02:42;10.50;99.90
25170;DHT22;13129;48.012;10.352;2022-10-26T04:05:11;10.60;99.90
25170;DHT22;13129;48.012;10.352;2022-10-26T04:07:36;10.80;99.90
25170;DHT22;13129;48.012;10.352;2022-10-26T04:10:03;11.00;99.90
25170;DHT22;13129;48.012;10.352;2022-10-26T04:12:36;11.10;99.90
25170;DHT22;13129;48.012;10.352;2022-10-26T04:15:02;11.20;99.90
25170;DHT22;13129;48.012;10.352;2022-10-26T04:17:37;11.30;99.90
25170;DHT22;13129;48.012;10.352;2022-10-26T04:20:06;11.40;99.90
25170;DHT22;13129;48.012;10.352;2022-10-26T04:22:32;11.50;99.90
25170;DHT22;13129;48.012;10.352;2022-10-26T04:25:52;11.60;99.90
25170;DHT22;13129;48.012;10.352;2022-10-26T04:28:56;11.60;99.90
25170;DHT22;13129;48.012;10.352;2022-10-26T04:31:45;11.70;99.90
25170;DHT22;13129;48.012;10.352;2022-10-26T04:37:35;11.70;99.90
25170;DHT22;13129;48.012;10.352;2022-10-26T04:40:37;11.70;99.90
25170;DHT22;13129;48.012;10.352;2022-10-26T04:43:03;11.70;99.90
25170;DHT22;13129;48.012;10.352;2022-10-26T04:45:37;11.70;99.90
25170;DHT22;13129;48.012;10.352;2022-10-26T04:48:50;11.70;99.90
25170;DHT22;13129;48.012;10.352;2022-10-26T04:51:45;11.70;99.90
25170;DHT22;13129;48.012;10.352;2022-10-26T04:54:11;11.70;99.90
25170;DHT22;13129;48.012;10.352;2022-10-26T04:56:43;11.70;99.90
25170;DHT22;13129;48.012;10.352;2022-10-26T04:59:08;11.70;99.90
25170;DHT22;13129;48.012;10.352;2022-10-26T05:01:34;11.60;99.90
25170;DHT22;13129;48.012;10.352;2022-10-26T05:04:00;11.60;99.90
25170;DHT22;13129;48.012;10.352;2022-10-26T05:06:26;11.50;99.90
25170;DHT22;13129;48.012;10.352;2022-10-26T05:08:51;11.50;99.90
25170;DHT22;13129;48.012;10.352;2022-10-26T05:11:17;11.50;99.90
25170;DHT22;13129;48.012;10.352;2022-10-26T05:13:43;11.50;99.90
25170;DHT22;13129;48.012;10.352;2022-10-26T05:16:08;11.50;99.90
25170;DHT22;13129;48.012;10.352;2022-10-26T05:18:34;11.50;99.90
25170;DHT22;13129;48.012;10.352;2022-10-26T05:21:00;11.50;99.90
25170;DHT22;13129;48.012;10.352;2022-10-26T05:23:29;11.50;99.90
25170;DHT22;13129;48.012;10.352;2022-10-26T05:25:55;11.60;99.90
25170;DHT22;13129;48.012;10.352;2022-10-26T05:28:21;11.60;99.90
25170;DHT22;13129;48.012;10.352;2022-10-26T05:31:00;11.60;99.90
25170;DHT22;13129;48.012;10.352;2022-10-26T05:33:26;11.70;99.90
25170;DHT22;13129;48.012;10.352;2022-10-26T05:35:55;11.70;99.90
25170;DHT22;13129;48.012;10.352;2022-10-26T05:38:21;11.70;99.90
25170;DHT22;13129;48.012;10.352;2022-10-26T05:40:50;11.70;99.90
25170;DHT22;13129;48.012;10.352;2022-10-26T05:43:18;11.70;99.90
25170;DHT22;13129;48.012;10.352;2022-10-26T05:45:44;11.80;99.90
25170;DHT22;13129;48.012;10.352;2022-10-26T05:48:14;11.80;99.90
25170;DHT22;13129;48.012;10.352;2022-10-26T05:50:39;11.80;99.90
25170;DHT22;13129;48.012;10.352;2022-10-26T05:53:05;11.80;99.90
25170;DHT22;13129;48.012;10.352;2022-10-26T05:55:31;11.80;99.90
25170;DHT22;13129;48.012;10.352;2022-10-26T05:57:57;11.80;99.90
25170;DHT22;13129;48.012;10.352;2022-10-26T06:00:30;11.80;99.90
25170;DHT22;13129;48.012;10.352;2022-10-26T06:08:28;11.90;99.90
25170;DHT22;13129;48.012;10.352;2022-10-26T06:10:55;11.90;99.90
25170;DHT22;13129;48.012;10.352;2022-10-26T06:13:25;12.00;99.90
25170;DHT22;13129;48.012;10.352;2022-10-26T06:19:08;12.10;99.90
25170;DHT22;13129;48.012;10.352;2022-10-26T06:29:59;12.30;99.90
25170;DHT22;13129;48.012;10.352;2022-10-26T06:32:26;12.30;99.90
25170;DHT22;13129;48.012;10.352;2022-10-26T06:37:34;12.30;99.90
25170;DHT22;13129;48.012;10.352;2022-10-26T06:40:02;12.40;99.90
25170;DHT22;13129;48.012;10.352;2022-10-26T06:42:30;12.40;99.90
25170;DHT22;13129;48.012;10.352;2022-10-26T06:44:56;12.30;99.90
25170;DHT22;13129;48.012;10.352;2022-10-26T06:47:28;12.30;99.90
25170;DHT22;13129;48.012;10.352;2022-10-26T06:49:57;12.30;99.90
25170;DHT22;13129;48.012;10.352;2022-10-26T06:55:21;12.30;99.90
25170;DHT22;13129;48.012;10.352;2022-10-26T06:57:48;12.30;99.90
25170;DHT22;13129;48.012;10.352;2022-10-26T07:00:16;12.30;99.90
25170;DHT22;13129;48.012;10.352;2022-10-26T07:02:44;12.40;99.90
25170;DHT22;13129;48.012;10.352;2022-10-26T07:05:11;12.60;99.90
25170;DHT22;13129;48.012;10.352;2022-10-26T07:07:42;12.70;99.90
25170;DHT22;13129;48.012;10.352;2022-10-26T07:10:12;12.80;99.90
25170;DHT22;13129;48.012;10.352;2022-10-26T07:12:39;12.90;99.90
25170;DHT22;13129;48.012;10.352;2022-10-26T07:15:28;13.00;99.90
25170;DHT22;13129;48.012;10.352;2022-10-26T07:18:26;13.00;99.90
25170;DHT22;13129;48.012;10.352;2022-10-26T07:21:52;13.00;99.90
25170;DHT22;13129;48.012;10.352;2022-10-26T07:35:32;13.70;99.90
25170;DHT22;13129;48.012;10.352;2022-10-26T07:39:09;14.20;99.90
25170;DHT22;13129;48.012;10.352;2022-10-26T07:45:08;15.00;99.90
25170;DHT22;13129;48.012;10.352;2022-10-26T07:47:37;15.20;99.90
25170;DHT22;13129;48.012;10.352;2022-10-26T07:50:16;15.30;99.90
25170;DHT22;13129;48.012;10.352;2022-10-26T07:52:43;15.40;99.90
25170;DHT22;13129;48.012;10.352;2022-10-26T07:55:11;15.50;99.90
25170;DHT22;13129;48.012;10.352;2022-10-26T07:57:37;15.60;99.90
25170;DHT22;13129;48.012;10.352;2022-10-26T08:00:06;15.80;99.90
25170;DHT22;13129;48.012;10.352;2022-10-26T08:02:37;15.90;99.90
25170;DHT22;13129;48.012;10.352;2022-10-26T08:05:07;15.90;99.90
25170;DHT22;13129;48.012;10.352;2022-10-26T08:07:33;16.00;99.90
25170;DHT22;13129;48.012;10.352;2022-10-26T08:10:12;16.10;99.90
25170;DHT22;13129;48.012;10.352;2022-10-26T08:12:42;16.30;99.90
25170;DHT22;13129;48.012;10.352;2022-10-26T08:15:11;16.40;99.90
25170;DHT22;13129;48.012;10.352;2022-10-26T08:18:06;16.30;99.90
25170;DHT22;13129;48.012;10.352;2022-10-26T08:23:32;16.20;99.90
25170;DHT22;13129;48.012;10.352;2022-10-26T08:26:19;16.20;99.90
25170;DHT22;13129;48.012;10.352;2022-10-26T08:29:10;16.20;99.90
25170;DHT22;13129;48.012;10.352;2022-10-26T08:34:36;16.10;99.90
25170;DHT22;13129;48.012;10.352;2022-10-26T08:37:18;16.20;99.90
25170;DHT22;13129;48.012;10.352;2022-10-26T08:39:44;16.50;99.90
25170;DHT22;13129;48.012;10.352;2022-10-26T08:42:35;17.10;99.90
25170;DHT22;13129;48.012;10.352;2022-10-26T08:45:11;18.00;99.90
25170;DHT22;13129;48.012;10.352;2022-10-26T08:47:48;18.90;99.90
25170;DHT22;13129;48.012;10.352;2022-10-26T08:50:25;19.60;99.90
25170;DHT22;13129;48.012;10.352;2022-10-26T08:53:03;20.20;99.90
25170;DHT22;13129;48.012;10.352;2022-10-26T08:55:45;20.40;99.90
25170;DHT22;13129;48.012;10.352;2022-10-26T08:58:15;20.50;99.90
25170;DHT22;13129;48.012;10.352;2022-10-26T09:00:46;21.10;99.90
25170;DHT22;13129;48.012;10.352;2022-10-26T09:03:14;21.60;99.90
25170;DHT22;13129;48.012;10.352;2022-10-26T09:08:41;21.70;99.90
25170;DHT22;13129;48.012;10.352;2022-10-26T09:11:51;21.70;99.90
25170;DHT22;13129;48.012;10.352;2022-10-26T09:24:11;23.70;99.90
25170;DHT22;13129;48.012;10.352;2022-10-26T09:26:44;24.40;99.90
25170;DHT22;13129;48.012;10.352;2022-10-26T09:29:17;25.00;98.80
25170;DHT22;13129;48.012;10.352;2022-10-26T09:31:47;24.70;95.80
25170;DHT22;13129;48.012;10.352;2022-10-26T09:34:41;23.80;96.10
25170;DHT22;13129;48.012;10.352;2022-10-26T09:37:28;22.90;96.90
25170;DHT22;13129;48.012;10.352;2022-10-26T09:40:20;23.00;98.00
25170;DHT22;13129;48.012;10.352;2022-10-26T09:43:07;24.00;96.60
25170;DHT22;13129;48.012;10.352;2022-10-26T09:45:52;24.50;94.80
25170;DHT22;13129;48.012;10.352;2022-10-26T09:48:41;23.70;94.10
25170;DHT22;13129;48.012;10.352;2022-10-26T09:51:10;22.30;95.50
25170;DHT22;13129;48.012;10.352;2022-10-26T09:53:36;21.50;97.20
25170;DHT22;13129;48.012;10.352;2022-10-26T09:56:09;20.80;98.50
25170;DHT22;13129;48.012;10.352;2022-10-26T09:58:57;20.30;99.50
25170;DHT22;13129;48.012;10.352;2022-10-26T10:06:39;19.90;99.90
25170;DHT22;13129;48.012;10.352;2022-10-26T10:09:11;20.00;99.90
25170;DHT22;13129;48.012;10.352;2022-10-26T10:14:31;20.80;99.90
25170;DHT22;13129;48.012;10.352;2022-10-26T10:17:03;21.10;99.90
25170;DHT22;13129;48.012;10.352;2022-10-26T10:19:34;21.00;99.90
25170;DHT22;13129;48.012;10.352;2022-10-26T10:22:16;21.90;99.90
25170;DHT22;13129;48.012;10.352;2022-10-26T10:27:23;26.40;93.30
25170;DHT22;13129;48.012;10.352;2022-10-26T10:29:54;27.90;90.20
25170;DHT22;13129;48.012;10.352;2022-10-26T10:32:21;29.00;82.50
25170;DHT22;13129;48.012;10.352;2022-10-26T10:34:50;29.40;80.00
25170;DHT22;13129;48.012;10.352;2022-10-26T10:37:34;30.10;76.50
25170;DHT22;13129;48.012;10.352;2022-10-26T10:40:19;30.10;72.00
25170;DHT22;13129;48.012;10.352;2022-10-26T10:42:47;28.90;71.70
25170;DHT22;13129;48.012;10.352;2022-10-26T10:45:26;27.10;75.50
25170;DHT22;13129;48.012;10.352;2022-10-26T10:48:15;25.20;78.70
25170;DHT22;13129;48.012;10.352;2022-10-26T10:51:01;23.70;85.20
25170;DHT22;13129;48.012;10.352;2022-10-26T10:53:33;22.70;88.40
25170;DHT22;13129;48.012;10.352;2022-10-26T10:56:13;22.40;90.40
25170;DHT22;13129;48.012;10.352;2022-10-26T10:59:05;22.30;90.50
25170;DHT22;13129;48.012;10.352;2022-10-26T11:01:58;22.20;91.10
25170;DHT22;13129;48.012;10.352;2022-10-26T11:07:31;22.10;91.60
25170;DHT22;13129;48.012;10.352;2022-10-26T11:10:04;21.60;91.60
25170;DHT22;13129;48.012;10.352;2022-10-26T11:12:43;21.90;92.20
25170;DHT22;13129;48.012;10.352;2022-10-26T11:15:17;22.40;91.70
25170;DHT22;13129;48.012;10.352;2022-10-26T11:18:07;23.70;90.80
25170;DHT22;13129;48.012;10.352;2022-10-26T11:20:50;25.30;87.00
25170;DHT22;13129;48.012;10.352;2022-10-26T11:23:24;25.30;85.60
25170;DHT22;13129;48.012;10.352;2022-10-26T11:25:59;24.80;85.60
25170;DHT22;13129;48.012;10.352;2022-10-26T11:28:39;24.20;87.40
25170;DHT22;13129;48.012;10.352;2022-10-26T11:31:22;23.60;89.80
25170;DHT22;13129;48.012;10.352;2022-10-26T11:34:14;23.20;90.50
25170;DHT22;13129;48.012;10.352;2022-10-26T11:36:43;22.90;90.90
25170;DHT22;13129;48.012;10.352;2022-10-26T11:39:13;22.80;91.50
25170;DHT22;13129;48.012;10.352;2022-10-26T11:44:34;22.50;91.80
25170;DHT22;13129;48.012;10.352;2022-10-26T11:47:27;22.30;92.00
25170;DHT22;13129;48.012;10.352;2022-10-26T11:50:28;22.40;91.80
25170;DHT22;13129;48.012;10.352;2022-10-26T11:53:05;22.20;91.40
25170;DHT22;13129;48.012;10.352;2022-10-26T11:55:36;22.00;91.60
25170;DHT22;13129;48.012;10.352;2022-10-26T11:58:07;21.90;91.70
25170;DHT22;13129;48.012;10.352;2022-10-26T12:00:33;21.80;92.00
25170;DHT22;13129;48.012;10.352;2022-10-26T12:03:06;21.60;92.10
25170;DHT22;13129;48.012;10.352;2022-10-26T12:05:50;21.50;92.50
25170;DHT22;13129;48.012;10.352;2022-10-26T12:08:28;21.30;92.70
25170;DHT22;13129;48.012;10.352;2022-10-26T12:13:37;20.90;93.30
25170;DHT22;13129;48.012;10.352;2022-10-26T12:16:34;20.80;93.70
25170;DHT22;13129;48.012;10.352;2022-10-26T12:19:14;20.80;93.70
25170;DHT22;13129;48.012;10.352;2022-10-26T12:21:41;20.70;93.80
25170;DHT22;13129;48.012;10.352;2022-10-26T12:24:28;20.70;93.90
25170;DHT22;13129;48.012;10.352;2022-10-26T12:26:59;20.60;94.20
25170;DHT22;13129;48.012;10.352;2022-10-26T12:29:46;20.50;94.30
25170;DHT22;13129;48.012;10.352;2022-10-26T12:35:27;20.20;94.50
25170;DHT22;13129;48.012;10.352;2022-10-26T12:37:49;20.10;94.60
25170;DHT22;13129;48.012;10.352;2022-10-26T12:40:40;20.00;95.00
25170;DHT22;13129;48.012;10.352;2022-10-26T12:45:41;19.90;95.60
25170;DHT22;13129;48.012;10.352;2022-10-26T12:58:05;20.20;96.10
25170;DHT22;13129;48.012;10.352;2022-10-26T13:00:15;20.40;95.80
25170;DHT22;13129;48.012;10.352;2022-10-26T13:08:49;20.40;96.00
25170;DHT22;13129;48.012;10.352;2022-10-26T13:11:31;20.20;96.20
25170;DHT22;13129;48.012;10.352;2022-10-26T13:14:18;19.90;96.30
25170;DHT22;13129;48.012;10.352;2022-10-26T13:16:45;19.60;96.70
25170;DHT22;13129;48.012;10.352;2022-10-26T13:19:29;19.40;97.20
25170;DHT22;13129;48.012;10.352;2022-10-26T13:21:58;19.20;97.70
25170;DHT22;13129;48.012;10.352;2022-10-26T13:24:27;19.00;98.30
25170;DHT22;13129;48.012;10.352;2022-10-26T13:30:21;18.90;98.90
25170;DHT22;13129;48.012;10.352;2022-10-26T13:33:01;19.00;99.10
25170;DHT22;13129;48.012;10.352;2022-10-26T13:35:27;19.00;99.20
25170;DHT22;13129;48.012;10.352;2022-10-26T13:37:56;18.90;99.30
25170;DHT22;13129;48.012;10.352;2022-10-26T13:40:26;18.90;99.60
25170;DHT22;13129;48.012;10.352;2022-10-26T13:42:57;19.00;99.50
25170;DHT22;13129;48.012;10.352;2022-10-26T13:51:21;19.20;99.70
25170;DHT22;13129;48.012;10.352;2022-10-26T13:53:56;19.10;99.80
25170;DHT22;13129;48.012;10.352;2022-10-26T13:59:15;19.10;99.90
25170;DHT22;13129;48.012;10.352;2022-10-26T14:01:41;19.00;99.90
25170;DHT22;13129;48.012;10.352;2022-10-26T14:04:36;19.00;99.90
25170;DHT22;13129;48.012;10.352;2022-10-26T14:07:03;18.90;99.90
25170;DHT22;13129;48.012;10.352;2022-10-26T14:09:30;18.80;99.90
25170;DHT22;13129;48.012;10.352;2022-10-26T14:11:58;18.80;99.90
25170;DHT22;13129;48.012;10.352;2022-10-26T14:14:28;18.70;99.90
25170;DHT22;13129;48.012;10.352;2022-10-26T14:16:55;18.70;99.90
25170;DHT22;13129;48.012;10.352;2022-10-26T14:19:30;18.70;99.90
25170;DHT22;13129;48.012;10.352;2022-10-26T14:21:56;18.60;99.90
25170;DHT22;13129;48.012;10.352;2022-10-26T14:24:35;18.50;99.90
25170;DHT22;13129;48.012;10.352;2022-10-26T14:27:20;18.50;99.90
25170;DHT22;13129;48.012;10.352;2022-10-26T14:29:46;18.40;99.90
25170;DHT22;13129;48.012;10.352;2022-10-26T14:32:20;18.30;99.90
25170;DHT22;13129;48.012;10.352;2022-10-26T14:34:46;18.30;99.90
25170;DHT22;13129;48.012;10.352;2022-10-26T14:39:56;18.30;99.90
25170;DHT22;13129;48.012;10.352;2022-10-26T14:42:34;18.30;99.90
25170;DHT22;13129;48.012;10.352;2022-10-26T14:45:02;18.30;99.90
25170;DHT22;13129;48.012;10.352;2022-10-26T14:47:31;18.40;99.90
25170;DHT22;13129;48.012;10.352;2022-10-26T14:49:59;18.40;99.90
25170;DHT22;13129;48.012;10.352;2022-10-26T14:52:28;18.30;99.90
25170;DHT22;13129;48.012;10.352;2022-10-26T14:55:04;18.30;99.90
25170;DHT22;13129;48.012;10.352;2022-10-26T14:57:36;18.20;99.90
25170;DHT22;13129;48.012;10.352;2022-10-26T15:00:21;18.00;99.90
25170;DHT22;13129;48.012;10.352;2022-10-26T15:02:49;17.90;99.90
25170;DHT22;13129;48.012;10.352;2022-10-26T15:05:29;17.80;99.90
25170;DHT22;13129;48.012;10.352;2022-10-26T15:07:56;17.70;99.90
25170;DHT22;13129;48.012;10.352;2022-10-26T15:13:29;17.70;99.90
25170;DHT22;13129;48.012;10.352;2022-10-26T15:16:23;17.80;99.90
25170;DHT22;13129;48.012;10.352;2022-10-26T15:18:57;17.80;99.90
25170;DHT22;13129;48.012;10.352;2022-10-26T15:21:33;17.80;99.90
25170;DHT22;13129;48.012;10.352;2022-10-26T15:24:00;17.90;99.90
25170;DHT22;13129;48.012;10.352;2022-10-26T15:26:30;17.90;99.90
25170;DHT22;13129;48.012;10.352;2022-10-26T15:28:56;17.90;99.90
25170;DHT22;13129;48.012;10.352;2022-10-26T15:31:30;17.80;99.90
25170;DHT22;13129;48.012;10.352;2022-10-26T15:36:32;17.40;99.90
25170;DHT22;13129;48.012;10.352;2022-10-26T15:39:00;17.30;99.90
25170;DHT22;13129;48.012;10.352;2022-10-26T15:41:31;17.20;99.90
25170;DHT22;13129;48.012;10.352;2022-10-26T15:44:03;17.00;99.90
25170;DHT22;13129;48.012;10.352;2022-10-26T15:46:36;16.90;99.90
25170;DHT22;13129;48.012;10.352;2022-10-26T15:49:13;16.80;99.90
25170;DHT22;13129;48.012;10.352;2022-10-26T15:51:45;16.70;99.90
25170;DHT22;13129;48.012;10.352;2022-10-26T15:54:23;16.60;99.90
25170;DHT22;13129;48.012;10.352;2022-10-26T15:56:56;16.40;99.90
25170;DHT22;13129;48.012;10.352;2022-10-26T15:59:34;16.30;99.90
25170;DHT22;13129;48.012;10.352;2022-10-26T16:02:14;16.20;99.90
25170;DHT22;13129;48.012;10.352;2022-10-26T16:04:43;16.10;99.90
25170;DHT22;13129;48.012;10.352;2022-10-26T16:07:14;16.00;99.90
25170;DHT22;13129;48.012;10.352;2022-10-26T16:10:12;15.90;99.90
25170;DHT22;13129;48.012;10.352;2022-10-26T16:12:39;15.80;99.90
25170;DHT22;13129;48.012;10.352;2022-10-26T16:15:37;15.70;99.90
25170;DHT22;13129;48.012;10.352;2022-10-26T16:18:09;15.60;99.90
25170;DHT22;13129;48.012;10.352;2022-10-26T16:20:38;15.40;99.90
25170;DHT22;13129;48.012;10.352;2022-10-26T16:23:10;15.30;99.90
25170;DHT22;13129;48.012;10.352;2022-10-26T16:25:49;15.20;99.90
25170;DHT22;13129;48.012;10.352;2022-10-26T16:28:24;15.10;99.90
25170;DHT22;13129;48.012;10.352;2022-10-26T16:30:50;15.00;99.90
25170;DHT22;13129;48.012;10.352;2022-10-26T16:33:15;14.90;99.90
25170;DHT22;13129;48.012;10.352;2022-10-26T16:35:41;14.80;99.90
25170;DHT22;13129;48.012;10.352;2022-10-26T16:38:07;14.70;99.90
25170;DHT22;13129;48.012;10.352;2022-10-26T16:40:34;14.60;99.90
25170;DHT22;13129;48.012;10.352;2022-10-26T16:42:59;14.40;99.90
25170;DHT22;13129;48.012;10.352;2022-10-26T16:45:25;14.40;99.90
25170;DHT22;13129;48.012;10.352;2022-10-26T16:47:51;14.30;99.90
25170;DHT22;13129;48.012;10.352;2022-10-26T16:50:16;14.30;99.90
25170;DHT22;13129;48.012;10.352;2022-10-26T16:52:45;14.20;99.90
25170;DHT22;13129;48.012;10.352;2022-10-26T16:55:11;14.10;99.90
25170;DHT22;13129;48.012;10.352;2022-10-26T16:57:39;14.00;99.90
25170;DHT22;13129;48.012;10.352;2022-10-26T17:00:06;13.90;99.90
25170;DHT22;13129;48.012;10.352;2022-10-26T17:02:32;13.80;99.90
25170;DHT22;13129;48.012;10.352;2022-10-26T17:40:03;12.90;99.90
25170;DHT22;13129;48.012;10.352;2022-10-26T17:43:40;12.90;99.90
25170;DHT22;13129;48.012;10.352;2022-10-26T17:56:16;12.90;99.90
25170;DHT22;13129;48.012;10.352;2022-10-26T17:59:08;12.80;99.90
25170;DHT22;13129;48.012;10.352;2022-10-26T18:01:38;12.70;99.90
25170;DHT22;13129;48.012;10.352;2022-10-26T18:04:27;12.70;99.90
25170;DHT22;13129;48.012;10.352;2022-10-26T18:06:53;12.60;99.90
25170;DHT22;13129;48.012;10.352;2022-10-26T18:09:19;12.60;99.90
25170;DHT22;13129;48.012;10.352;2022-10-26T18:11:44;12.50;99.90
25170;DHT22;13129;48.012;10.352;2022-10-26T18:14:13;12.40;99.90
25170;DHT22;13129;48.012;10.352;2022-10-26T18:16:50;12.30;99.90
25170;DHT22;13129;48.012;10.352;2022-10-26T18:19:31;12.30;99.90
25170;DHT22;13129;48.012;10.352;2022-10-26T18:22:00;12.20;99.90
25170;DHT22;13129;48.012;10.352;2022-10-26T18:24:25;12.10;99.90
25170;DHT22;13129;48.012;10.352;2022-10-26T18:26:55;12.00;99.90
25170;DHT22;13129;48.012;10.352;2022-10-26T18:29:20;11.80;99.90
25170;DHT22;13129;48.012;10.352;2022-10-26T18:31:46;11.60;99.90
25170;DHT22;13129;48.012;10.352;2022-10-26T18:34:11;11.50;99.90
25170;DHT22;13129;48.012;10.352;2022-10-26T18:36:37;11.40;99.90
25170;DHT22;13129;48.012;10.352;2022-10-26T18:39:03;11.40;99.90
25170;DHT22;13129;48.012;10.352;2022-10-26T18:41:29;11.50;99.90
25170;DHT22;13129;48.012;10.352;2022-10-26T18:43:55;11.50;99.90
25170;DHT22;13129;48.012;10.352;2022-10-26T18:46:27;11.50;99.90
25170;DHT22;13129;48.012;10.352;2022-10-26T18:48:54;11.60;99.90
25170;DHT22;13129;48.012;10.352;2022-10-26T18:51:21;11.60;99.90
25170;DHT22;13129;48.012;10.352;2022-10-26T18:53:48;11.50;99.90
25170;DHT22;13129;48.012;10.352;2022-10-26T18:56:16;11.50;99.90
25170;DHT22;13129;48.012;10.352;2022-10-26T18:58:47;11.50;99.90
25170;DHT22;13129;48.012;10.352;2022-10-26T19:01:20;11.40;99.90
25170;DHT22;13129;48.012;10.352;2022-10-26T19:03:47;11.30;99.90
25170;DHT22;13129;48.012;10.352;2022-10-26T19:06:18;11.10;99.90
25170;DHT22;13129;48.012;10.352;2022-10-26T19:08:44;11.00;99.90
25170;DHT22;13129;48.012;10.352;2022-10-26T19:11:15;10.80;99.90
25170;DHT22;13129;48.012;10.352;2022-10-26T19:13:41;10.60;99.90
25170;DHT22;13129;48.012;10.352;2022-10-26T19:16:13;10.50;99.90
25170;DHT22;13129;48.012;10.352;2022-10-26T19:18:39;10.50;99.90
25170;DHT22;13129;48.012;10.352;2022-10-26T19:21:17;10.60;99.90
25170;DHT22;13129;48.012;10.352;2022-10-26T19:23:46;10.80;99.90
25170;DHT22;13129;48.012;10.352;2022-10-26T19:26:14;11.00;99.90
25170;DHT22;13129;48.012;10.352;2022-10-26T19:28:40;11.10;99.90
25170;DHT22;13129;48.012;10.352;2022-10-26T19:31:08;11.20;99.90
25170;DHT22;13129;48.012;10.352;2022-10-26T19:33:34;11.30;99.90
25170;DHT22;13129;48.012;10.352;2022-10-26T19:36:02;11.30;99.90
25170;DHT22;13129;48.012;10.352;2022-10-26T19:38:29;11.20;99.90
25170;DHT22;13129;48.012;10.352;2022-10-26T19:40:59;11.20;99.90
25170;DHT22;13129;48.012;10.352;2022-10-26T19:43:26;11.20;99.90
25170;DHT22;13129;48.012;10.352;2022-10-26T19:45:54;11.10;99.90
25170;DHT22;13129;48.012;10.352;2022-10-26T19:48:20;11.20;99.90
25170;DHT22;13129;48.012;10.352;2022-10-26T19:50:50;11.10;99.90
25170;DHT22;13129;48.012;10.352;2022-10-26T19:53:18;11.10;99.90
25170;DHT22;13129;48.012;10.352;2022-10-26T19:55:46;11.10;99.90
25170;DHT22;13129;48.012;10.352;2022-10-26T19:58:12;11.10;99.90
25170;DHT22;13129;48.012;10.352;2022-10-26T20:00:38;11.00;99.90
25170;DHT22;13129;48.012;10.352;2022-10-26T20:03:05;10.90;99.90
25170;DHT22;13129;48.012;10.352;2022-10-26T20:05:31;10.80;99.90
25170;DHT22;13129;48.012;10.352;2022-10-26T20:07:56;10.80;99.90
25170;DHT22;13129;48.012;10.352;2022-10-26T20:10:22;10.70;99.90
25170;DHT22;13129;48.012;10.352;2022-10-26T20:12:48;10.70;99.90
25170;DHT22;13129;48.012;10.352;2022-10-26T20:15:13;10.50;99.90
25170;DHT22;13129;48.012;10.352;2022-10-26T20:17:39;10.40;99.90
25170;DHT22;13129;48.012;10.352;2022-10-26T20:20:05;10.30;99.90
25170;DHT22;13129;48.012;10.352;2022-10-26T20:22:31;10.20;99.90
25170;DHT22;13129;48.012;10.352;2022-10-26T20:24:57;10.20;99.90
25170;DHT22;13129;48.012;10.352;2022-10-26T20:27:23;10.30;99.90
25170;DHT22;13129;48.012;10.352;2022-10-26T20:29:48;10.40;99.90
25170;DHT22;13129;48.012;10.352;2022-10-26T20:32:14;10.50;99.90
25170;DHT22;13129;48.012;10.352;2022-10-26T20:34:40;10.60;99.90
25170;DHT22;13129;48.012;10.352;2022-10-26T20:37:08;10.60;99.90
25170;DHT22;13129;48.012;10.352;2022-10-26T20:39:34;10.60;99.90
25170;DHT22;13129;48.012;10.352;2022-10-26T20:42:01;10.60;99.90
25170;DHT22;13129;48.012;10.352;2022-10-26T20:44:30;10.70;99.90
25170;DHT22;13129;48.012;10.352;2022-10-26T20:46:56;10.70;99.90
25170;DHT22;13129;48.012;10.352;2022-10-26T20:49:22;10.70;99.90
25170;DHT22;13129;48.012;10.352;2022-10-26T20:52:04;10.80;99.90
25170;DHT22;13129;48.012;10.352;2022-10-26T20:57:51;10.90;99.90
25170;DHT22;13129;48.012;10.352;2022-10-26T21:00:18;10.80;99.90
25170;DHT22;13129;48.012;10.352;2022-10-26T21:02:44;10.80;99.90
25170;DHT22;13129;48.012;10.352;2022-10-26T21:05:10;10.80;99.90
25170;DHT22;13129;48.012;10.352;2022-10-26T21:07:35;10.80;99.90
25170;DHT22;13129;48.012;10.352;2022-10-26T21:10:01;10.80;99.90
25170;DHT22;13129;48.012;10.352;2022-10-26T21:12:27;10.80;99.90
25170;DHT22;13129;48.012;10.352;2022-10-26T21:14:52;10.80;99.90
25170;DHT22;13129;48.012;10.352;2022-10-26T21:17:18;10.80;99.90
25170;DHT22;13129;48.012;10.352;2022-10-26T21:19:43;10.90;99.90
25170;DHT22;13129;48.012;10.352;2022-10-26T21:22:09;10.90;99.90
25170;DHT22;13129;48.012;10.352;2022-10-26T21:24:35;10.90;99.90
25170;DHT22;13129;48.012;10.352;2022-10-26T21:27:00;10.80;99.90
25170;DHT22;13129;48.012;10.352;2022-10-26T21:29:27;10.80;99.90
25170;DHT22;13129;48.012;10.352;2022-10-26T21:31:53;10.80;99.90
25170;DHT22;13129;48.012;10.352;2022-10-26T21:34:18;10.80;99.90
25170;DHT22;13129;48.012;10.352;2022-10-26T21:36:44;10.80;99.90
25170;DHT22;13129;48.012;10.352;2022-10-26T21:39:10;10.70;99.90
25170;DHT22;13129;48.012;10.352;2022-10-26T21:41:35;10.70;99.90
25170;DHT22;13129;48.012;10.352;2022-10-26T21:44:04;10.70;99.90
25170;DHT22;13129;48.012;10.352;2022-10-26T21:46:30;10.60;99.90
25170;DHT22;13129;48.012;10.352;2022-10-26T21:48:56;10.70;99.90
25170;DHT22;13129;48.012;10.352;2022-10-26T21:51:21;10.70;99.90
25170;DHT22;13129;48.012;10.352;2022-10-26T21:53:47;10.70;99.90
25170;DHT22;13129;48.012;10.352;2022-10-26T21:56:15;10.70;99.90
25170;DHT22;13129;48.012;10.352;2022-10-26T21:58:41;10.60;99.90
25170;DHT22;13129;48.012;10.352;2022-10-26T22:01:13;10.50;99.90
25170;DHT22;13129;48.012;10.352;2022-10-26T22:03:40;10.50;99.90
25170;DHT22;13129;48.012;10.352;2022-10-26T22:06:10;10.50;99.90